SBOSBO SAN / KSAN
Speedbird OnlineSpeedbird Online SAN / KSAN

San Diego International Airport
05:42 9°C

Location San Diego, United States
Latitude: 32.7336006165
Longitude: -117.190002441
Web Airport Website | Wikipedia
Altitude 5 Meter / 17 Feet
Distance 8,835 KM / 5,490 Miles
from London.
Time Zone UTC -8 hours (America/Los_Angeles)
Codes IATA: SAN
ICAO: KSAN
Currency £1 equals USD 1.24
Runways
RunwayLength (m)Surface
092865Partial
272865Partial
Radio
TypeDescriptionFrequency
A/DSOCAL APP/DEP119.6
ATISATIS134.8
CLDCLNC DEL125.9
GNDGND123.9
MISCCG157.15
MISCCG898.4
TWRLINDBERGH TWR118.3
UNICUNICOM122.95
Live ATC
METAR KSAN 311251Z 08003KT 10SM FEW010 BKN065 OVC120 11/08 A3003 RMK AO2 SLP168 VCSH T01110083 $
TAF KSAN 311129Z 3112/0118 VRB04KT P6SM VCSH BKN070 FM311300 VRB04KT P6SM SCT070 SCT120 FM312000 31008KT P6SM SKC FM010200 VRB04KT P6SM SKC
Weather As Of 31 Jan 2023 05:37
Description Overcast clouds
Wind 6 km/h from East (90°)
Cloud Cover 100%
Precipitation Rain: none, Snow: none
Sunrise 06:44
Sunset 17:19
Lounges Aspire Lounge, Terminal 2
Rotations During the last 90 days there were
79 flights from LHR
76 flights to LHR
3 flights to LAX



Support Speedbird Online

© 2017-2023 Speedbird Online